PWSweather.com
Personal Weather Stations
Station Observations

Tucson, AZ 85750

Lat: 32.31347, Lon: -110.825248

Elevation: 2745

Station Type: Davis Vantage Pro

http://www.cfsd16.org/schools/espererocanyon/weather_tracker.html

Latest ConditionsUpdated 1:40:15 AM MST Monday, Aug 31, 2015
Currently Today's Max Today's Min Today's Average
Temperature 77.3°F25.2°C 79.3°F26.3°C 77.3°F25.2°C 78.4°F25.8°C
Dew Point 63.2°F17.3°C 64.7°F18.2°C 62.2°F16.8°C 63.4°F17.4°C
Winds Calm Calm Calm WSWCalm WSW - Calm Calm
Wind Gusts -- -- - -
Humidity 62% 64% 57% 60%
Pressure 29.71 in1006.1 mb 29.71 in1006.1 mb 29.70 in1005.8 mb -
Hour Temp Dew Point Humidity Winds Wind Gusts Pressure Precip Precip Rate Daily Precip Total
01:40 AM 77.3°F25.2°C 63.2°F17.3°C 62% Calm Calm -- 29.71 in1006.1 mb 0.00 in0.0 mm 0.00 in0.0 mm 0.00 in0.0 mm
01:35 AM 77.5°F25.3°C 63.4°F17.4°C 62% Calm Calm -- 29.71 in1006.1 mb 0.00 in0.0 mm 0.00 in0.0 mm 0.00 in0.0 mm
01:30 AM 77.6°F25.3°C 63.5°F17.5°C 62% Calm Calm -- 29.71 in1006.1 mb 0.00 in0.0 mm 0.00 in0.0 mm 0.00 in0.0 mm
01:25 AM 77.7°F25.4°C 63.2°F17.3°C 61% Calm Calm -- 29.71 in1006.1 mb 0.00 in0.0 mm 0.00 in0.0 mm 0.00 in0.0 mm
01:20 AM 77.9°F25.5°C 64.7°F18.2°C 64% Calm Calm -- 29.71 in1006.1 mb 0.00 in0.0 mm 0.00 in0.0 mm 0.00 in0.0 mm
01:15 AM 78.0°F25.6°C 63.9°F17.7°C 62% Calm Calm -- 29.71 in1006.1 mb 0.00 in0.0 mm 0.00 in0.0 mm 0.00 in0.0 mm
01:10 AM 78.0°F25.6°C 63.0°F17.2°C 60% Calm Calm -- 29.71 in1006.1 mb 0.00 in0.0 mm 0.00 in0.0 mm 0.00 in0.0 mm
01:05 AM 78.1°F25.6°C 63.5°F17.5°C 61% Calm Calm -- 29.71 in1006.1 mb 0.00 in0.0 mm 0.00 in0.0 mm 0.00 in0.0 mm
01:00 AM 78.2°F25.7°C 63.6°F17.6°C 61% Calm Calm -- 29.71 in1006.1 mb 0.00 in0.0 mm 0.00 in0.0 mm 0.00 in0.0 mm
12:55 AM 78.3°F25.7°C 63.7°F17.6°C 61% Calm Calm -- 29.71 in1006.1 mb 0.00 in0.0 mm 0.00 in0.0 mm 0.00 in0.0 mm
12:50 AM 78.4°F25.8°C 63.3°F17.4°C 60% Calm Calm -- 29.71 in1006.1 mb 0.00 in0.0 mm 0.00 in0.0 mm 0.00 in0.0 mm
12:45 AM 78.6°F25.9°C 63.1°F17.3°C 59% Calm Calm -- 29.71 in1006.1 mb 0.00 in0.0 mm 0.00 in0.0 mm 0.00 in0.0 mm
12:40 AM 78.7°F25.9°C 62.2°F16.8°C 57% Calm Calm -- 29.71 in1006.1 mb 0.00 in0.0 mm 0.00 in0.0 mm 0.00 in0.0 mm
12:35 AM 78.8°F26.0°C 63.2°F17.3°C 59% Calm Calm -- 29.71 in1006.1 mb 0.00 in0.0 mm 0.00 in0.0 mm 0.00 in0.0 mm
12:30 AM 78.9°F26.1°C 63.8°F17.7°C 60% Calm Calm -- 29.70 in1005.8 mb 0.00 in0.0 mm 0.00 in0.0 mm 0.00 in0.0 mm
12:25 AM 79.0°F26.1°C 63.4°F17.4°C 59% Calm Calm -- 29.71 in1006.1 mb 0.00 in0.0 mm 0.00 in0.0 mm 0.00 in0.0 mm
12:20 AM 79.1°F26.2°C 63.5°F17.5°C 59% Calm Calm -- 29.71 in1006.1 mb 0.00 in0.0 mm 0.00 in0.0 mm 0.00 in0.0 mm
12:15 AM 79.2°F26.2°C 63.1°F17.3°C 58% Calm Calm -- 29.71 in1006.1 mb 0.00 in0.0 mm 0.00 in0.0 mm 0.00 in0.0 mm
12:10 AM 79.2°F26.2°C 63.1°F17.3°C 58% Calm Calm -- 29.71 in1006.1 mb 0.00 in0.0 mm 0.00 in0.0 mm 0.00 in0.0 mm
12:05 AM 79.3°F26.3°C 63.2°F17.3°C 58% Calm Calm -- 29.71 in1006.1 mb 0.00 in0.0 mm 0.00 in0.0 mm 0.00 in0.0 mm
12:00 AM 79.3°F26.3°C 63.2°F17.3°C 58% Calm Calm -- 29.71 in1006.1 mb 0.00 in0.0 mm 0.00 in0.0 mm 0.00 in0.0 mm